Alden, Minnesota
Current Conditions -  °F | °C
As of 9:34 PM on Friday 24 Oct 2014 (Local Time) from KAEL Reporting Station
Haze Haze  
Wind Chill: 52°   Ceiling: Unl
Heat Index: 52°   Visibility: 4mi
Dew Point: 52°   Wind: 0mph
Humidity: 100%   Direction: NA
Pressure: 29.91"   Gusts: NA
Location:  43.67°N, 93.58°W
Report Text: KAEL 250234Z AUTO 00000KT 4SM BR CLR 11/11 A2991 RMK AO2
Loading
Personal Weather Stations






























Interactive Weather Map
Tropical Storm Tracking
New forecast layout! Learn more

10-Day Weather Forecast

Advertisements
Track Severe Weather on mobile